Time;durP1;ratioP1;P1;durP2;ratioP2;P2;SDS_P1;SDS_P2;PMS_P1;PMS_P2;Temp;Humidity;BMP_temperature;BMP_pressure;BME280_temperature;BME280_humidity;BME280_pressure;Samples;Min_cycle;Max_cycle;Signal;HPM_P1;HPM_P2
2022/08/29 00:00:26;;;;;;;;;;;23.70;79.20;;;;;;5072400;28;20383;-69
2022/08/29 00:02:52;;;;;;;;;;;23.70;79.30;;;;;;5072575;28;20340;-72
2022/08/29 00:05:19;;;;;;;;;;;23.70;79.10;;;;;;5072420;28;19918;-67
2022/08/29 00:07:45;;;;;;;;;;;23.60;79.60;;;;;;5072521;28;20009;-71
2022/08/29 00:10:11;;;;;;;;;;;23.60;79.60;;;;;;5072397;28;19955;-69
2022/08/29 00:12:37;;;;;;;;;;;23.60;79.60;;;;;;5071146;28;19915;-72
2022/08/29 00:15:04;;;;;;;;;;;23.60;80.00;;;;;;5072284;28;19912;-70
2022/08/29 00:17:30;;;;;;;;;;;23.40;80.50;;;;;;5072218;28;20364;-70
2022/08/29 00:19:56;;;;;;;;;;;23.50;80.70;;;;;;5072158;28;19927;-71
2022/08/29 00:22:21;;;;;;;;;;;23.80;78.90;;;;;;5058843;28;19960;-70
2022/08/29 00:24:47;;;;;;;;;;;24.00;77.90;;;;;;5072101;28;19908;-72
2022/08/29 00:27:12;;;;;;;;;;;24.10;77.10;;;;;;5072164;28;19912;-71
2022/08/29 00:29:38;;;;;;;;;;;24.10;76.80;;;;;;5076054;28;20024;-66
2022/08/29 00:32:04;;;;;;;;;;;24.00;77.10;;;;;;5082432;28;19909;-67
2022/08/29 00:34:29;;;;;;;;;;;23.90;77.60;;;;;;5072002;28;19909;-67
2022/08/29 00:36:55;;;;;;;;;;;23.70;78.20;;;;;;5072137;28;19960;-66
2022/08/29 00:39:21;;;;;;;;;;;23.60;79.10;;;;;;5072096;28;20351;-68
2022/08/29 00:41:46;;;;;;;;;;;23.50;79.70;;;;;;5072103;28;19915;-71
2022/08/29 00:44:12;;;;;;;;;;;23.40;80.00;;;;;;5071929;28;20287;-72
2022/08/29 00:46:40;;;;;;;;;;;23.50;78.70;;;;;;5071870;28;19916;-72
2022/08/29 00:49:17;;;;;;;;;;;23.70;77.40;;;;;;5072036;28;19920;-71
2022/08/29 00:51:44;;;;;;;;;;;23.90;76.40;;;;;;5060489;28;20547;-70
2022/08/29 00:54:10;;;;;;;;;;;24.10;75.40;;;;;;5072027;28;20356;-65
2022/08/29 00:56:38;;;;;;;;;;;24.20;74.60;;;;;;5074657;28;20371;-72
2022/08/29 00:59:09;;;;;;;;;;;24.30;74.30;;;;;;5076061;28;19913;-64
2022/08/29 01:01:35;;;;;;;;;;;24.30;74.30;;;;;;5075819;28;19948;-70
2022/08/29 01:04:01;;;;;;;;;;;24.30;74.40;;;;;;5076084;28;19950;-72
2022/08/29 01:06:27;;;;;;;;;;;24.30;74.20;;;;;;5076060;28;20261;-69
2022/08/29 01:08:53;;;;;;;;;;;24.30;74.00;;;;;;5075694;28;19916;-70
2022/08/29 01:14:04;;;;;;;;;;;24.50;73.30;;;;;;5075771;28;20017;-72
2022/08/29 01:16:30;;;;;;;;;;;24.30;73.10;;;;;;5075800;28;19909;-69
2022/08/29 01:18:59;;;;;;;;;;;24.20;73.80;;;;;;5075292;28;19935;-71
2022/08/29 01:21:43;;;;;;;;;;;24.20;73.90;;;;;;5061187;28;19938;-64
2022/08/29 01:24:14;;;;;;;;;;;24.20;74.00;;;;;;5075838;28;19913;-66
2022/08/29 01:26:41;;;;;;;;;;;24.30;73.30;;;;;;5075516;28;19926;-70
2022/08/29 01:29:07;;;;;;;;;;;24.20;74.40;;;;;;5075236;28;19919;-68
2022/08/29 01:31:38;;;;;;;;;;;24.20;74.90;;;;;;5089666;28;19912;-71
2022/08/29 01:34:04;;;;;;;;;;;24.10;75.40;;;;;;5075356;28;19912;-71
2022/08/29 01:36:41;;;;;;;;;;;24.10;75.10;;;;;;5075382;28;19916;-69
2022/08/29 01:39:07;;;;;;;;;;;24.10;75.10;;;;;;5075404;28;20058;-72
2022/08/29 01:41:34;;;;;;;;;;;24.30;74.10;;;;;;5075236;28;20379;-70
2022/08/29 01:44:00;;;;;;;;;;;24.30;73.90;;;;;;5075418;28;19915;-70
2022/08/29 01:46:28;;;;;;;;;;;24.40;73.40;;;;;;5074893;28;19927;-70
2022/08/29 01:48:53;;;;;;;;;;;24.50;73.20;;;;;;5075004;28;19999;-67
2022/08/29 01:51:19;;;;;;;;;;;24.50;73.00;;;;;;5075008;28;20011;-72
2022/08/29 01:53:45;;;;;;;;;;;24.50;72.80;;;;;;5065920;28;19908;-71
2022/08/29 01:56:13;;;;;;;;;;;24.50;72.70;;;;;;5074986;28;20427;-72
2022/08/29 01:58:39;;;;;;;;;;;24.60;72.30;;;;;;5074804;28;20653;-71
2022/08/29 02:01:06;;;;;;;;;;;24.60;72.30;;;;;;5074913;28;19909;-72
2022/08/29 02:03:31;;;;;;;;;;;24.50;72.50;;;;;;5074759;28;19919;-72
2022/08/29 02:05:59;;;;;;;;;;;24.50;72.70;;;;;;5074898;28;20322;-72
2022/08/29 02:08:24;;;;;;;;;;;24.40;73.10;;;;;;5073465;28;19912;-72
2022/08/29 02:10:50;;;;;;;;;;;24.40;73.20;;;;;;5074634;28;19908;-73
2022/08/29 02:13:15;;;;;;;;;;;24.40;74.00;;;;;;5074623;28;19916;-71
2022/08/29 02:15:41;;;;;;;;;;;24.40;73.50;;;;;;5074543;28;19913;-72
2022/08/29 02:18:06;;;;;;;;;;;24.40;73.30;;;;;;5074484;28;19931;-71
2022/08/29 02:20:32;;;;;;;;;;;24.40;72.90;;;;;;5074373;28;20284;-70
2022/08/29 02:22:58;;;;;;;;;;;24.50;72.80;;;;;;5065055;28;20271;-72
2022/08/29 02:25:42;;;;;;;;;;;24.50;72.60;;;;;;5074292;28;19922;-72
2022/08/29 02:28:09;;;;;;;;;;;24.60;72.70;;;;;;5074428;28;20325;-71
2022/08/29 02:30:35;;;;;;;;;;;24.60;72.10;;;;;;5086150;28;20279;-71
2022/08/29 02:33:00;;;;;;;;;;;24.70;72.00;;;;;;5075311;28;19909;-70
2022/08/29 02:35:26;;;;;;;;;;;24.70;72.00;;;;;;5074275;28;19912;-71
2022/08/29 02:37:51;;;;;;;;;;;24.70;72.10;;;;;;5074093;28;19908;-71
2022/08/29 02:40:17;;;;;;;;;;;24.70;72.30;;;;;;5074045;28;19908;-71
2022/08/29 02:42:42;;;;;;;;;;;24.60;72.30;;;;;;5074118;28;19920;-69
2022/08/29 02:45:09;;;;;;;;;;;24.40;73.10;;;;;;5073983;28;19919;-72
2022/08/29 02:47:35;;;;;;;;;;;24.40;73.20;;;;;;5074035;28;19919;-70
2022/08/29 02:50:05;;;;;;;;;;;24.50;73.20;;;;;;5073765;28;19909;-72
2022/08/29 02:52:31;;;;;;;;;;;24.60;72.50;;;;;;5061912;28;19919;-71
2022/08/29 02:54:56;;;;;;;;;;;24.60;72.40;;;;;;5073844;28;19995;-71
2022/08/29 02:57:22;;;;;;;;;;;24.60;72.10;;;;;;5073736;28;20403;-72
2022/08/29 02:59:48;;;;;;;;;;;24.50;72.40;;;;;;5073833;28;20345;-73
2022/08/29 03:02:13;;;;;;;;;;;24.50;72.60;;;;;;5073803;28;19912;-72
2022/08/29 03:04:39;;;;;;;;;;;24.40;72.70;;;;;;5073663;28;19909;-72
2022/08/29 03:07:04;;;;;;;;;;;24.40;72.90;;;;;;5073470;28;20326;-73
2022/08/29 03:09:30;;;;;;;;;;;24.50;72.60;;;;;;5073952;28;20356;-70
2022/08/29 03:11:55;;;;;;;;;;;24.60;72.10;;;;;;5073446;28;19913;-69
2022/08/29 03:14:22;;;;;;;;;;;24.60;72.10;;;;;;5072204;28;20399;-72
2022/08/29 03:16:47;;;;;;;;;;;24.60;72.00;;;;;;5073391;28;19909;-70
2022/08/29 03:19:13;;;;;;;;;;;24.60;72.10;;;;;;5072928;28;19933;-72
2022/08/29 03:21:39;;;;;;;;;;;24.50;72.00;;;;;;5057672;28;19916;-70
2022/08/29 03:24:04;;;;;;;;;;;24.50;72.50;;;;;;5073251;28;20366;-72
2022/08/29 03:26:30;;;;;;;;;;;24.50;72.20;;;;;;5073053;28;19916;-71
2022/08/29 03:28:55;;;;;;;;;;;24.50;72.10;;;;;;5073088;28;19965;-71
2022/08/29 03:31:21;;;;;;;;;;;24.50;72.00;;;;;;5087352;28;20296;-72
2022/08/29 03:33:46;;;;;;;;;;;24.50;71.90;;;;;;5073345;28;19909;-70
2022/08/29 03:36:12;;;;;;;;;;;24.50;72.10;;;;;;5073712;28;20287;-72
2022/08/29 03:38:38;;;;;;;;;;;24.50;72.00;;;;;;5074459;28;20352;-66
2022/08/29 03:41:04;;;;;;;;;;;24.50;72.00;;;;;;5072116;28;20399;-67
2022/08/29 03:43:30;;;;;;;;;;;24.60;72.00;;;;;;5073517;28;19915;-69
2022/08/29 03:45:56;;;;;;;;;;;24.60;71.90;;;;;;5073016;28;19925;-70
2022/08/29 03:48:21;;;;;;;;;;;24.50;71.90;;;;;;5071543;28;20356;-69
2022/08/29 03:50:47;;;;;;;;;;;24.50;71.90;;;;;;5073149;28;20419;-71
2022/08/29 03:53:12;;;;;;;;;;;24.50;71.60;;;;;;5055901;28;19989;-70
2022/08/29 03:55:38;;;;;;;;;;;24.50;71.70;;;;;;5072630;28;20402;-71
2022/08/29 03:58:04;;;;;;;;;;;24.40;71.90;;;;;;5072537;28;19909;-69
2022/08/29 04:00:29;;;;;;;;;;;24.40;72.20;;;;;;5072567;28;20383;-72
2022/08/29 04:02:57;;;;;;;;;;;24.40;72.10;;;;;;5072585;28;19912;-72
2022/08/29 04:05:22;;;;;;;;;;;24.40;72.30;;;;;;5072493;28;19917;-72
2022/08/29 04:07:48;;;;;;;;;;;24.40;72.30;;;;;;5072549;28;19924;-73
2022/08/29 04:10:19;;;;;;;;;;;24.50;71.80;;;;;;5072206;28;19912;-71
2022/08/29 04:12:44;;;;;;;;;;;24.50;71.90;;;;;;5072436;28;19965;-71
2022/08/29 04:15:10;;;;;;;;;;;24.50;72.00;;;;;;5072433;28;19916;-71
2022/08/29 04:17:37;;;;;;;;;;;24.50;71.80;;;;;;5072328;28;20049;-72
2022/08/29 04:20:03;;;;;;;;;;;24.50;71.70;;;;;;5072282;28;19913;-70
2022/08/29 04:22:29;;;;;;;;;;;24.40;71.70;;;;;;5054224;28;20368;-71
2022/08/29 04:24:55;;;;;;;;;;;24.50;71.50;;;;;;5072169;28;19908;-71
2022/08/29 04:27:20;;;;;;;;;;;24.50;71.70;;;;;;5072365;28;19919;-72
2022/08/29 04:29:47;;;;;;;;;;;24.30;72.00;;;;;;5076535;28;20470;-72
2022/08/29 04:32:14;;;;;;;;;;;24.10;72.70;;;;;;5081135;28;20367;-72
2022/08/29 04:34:39;;;;;;;;;;;24.00;73.10;;;;;;5072125;28;19912;-73
2022/08/29 04:37:05;;;;;;;;;;;24.10;73.10;;;;;;5072072;28;19916;-71
2022/08/29 04:39:30;;;;;;;;;;;24.10;73.00;;;;;;5071938;28;19909;-72
2022/08/29 04:41:56;;;;;;;;;;;24.10;73.00;;;;;;5072184;28;19916;-72
2022/08/29 04:44:21;;;;;;;;;;;24.10;72.80;;;;;;5072172;28;20395;-71
2022/08/29 04:46:47;;;;;;;;;;;24.00;73.20;;;;;;5070471;28;19969;-72
2022/08/29 04:49:12;;;;;;;;;;;24.00;73.50;;;;;;5070736;28;19912;-71
2022/08/29 04:51:39;;;;;;;;;;;24.00;73.20;;;;;;5056025;28;19909;-69
2022/08/29 04:54:05;;;;;;;;;;;24.10;73.30;;;;;;5071852;28;19908;-70
2022/08/29 04:56:31;;;;;;;;;;;24.10;72.90;;;;;;5071764;28;19909;-72
2022/08/29 04:58:56;;;;;;;;;;;24.00;73.50;;;;;;5071840;28;19912;-69
2022/08/29 05:01:24;;;;;;;;;;;24.00;73.50;;;;;;5071807;28;19920;-70
2022/08/29 05:03:52;;;;;;;;;;;24.00;73.40;;;;;;5070328;28;19913;-71
2022/08/29 05:06:18;;;;;;;;;;;23.90;73.30;;;;;;5072334;28;19916;-72
2022/08/29 05:08:44;;;;;;;;;;;23.90;73.70;;;;;;5071733;28;19909;-72
2022/08/29 05:11:13;;;;;;;;;;;23.90;73.30;;;;;;5071820;28;19908;-72
2022/08/29 05:13:39;;;;;;;;;;;23.80;73.70;;;;;;5071846;28;20337;-68
2022/08/29 05:16:05;;;;;;;;;;;23.90;73.60;;;;;;5071712;28;20003;-71
2022/08/29 05:18:30;;;;;;;;;;;23.90;73.50;;;;;;5071525;28;19925;-71
2022/08/29 05:20:56;;;;;;;;;;;23.90;73.90;;;;;;5071417;28;19935;-73
2022/08/29 05:23:21;;;;;;;;;;;23.90;73.60;;;;;;5064858;28;19908;-74
2022/08/29 05:25:53;;;;;;;;;;;23.90;74.70;;;;;;5071246;28;19922;-71
2022/08/29 05:28:19;;;;;;;;;;;23.90;73.90;;;;;;5071399;28;19922;-72
2022/08/29 05:30:45;;;;;;;;;;;23.90;73.70;;;;;;5084671;28;20347;-72
2022/08/29 05:33:10;;;;;;;;;;;23.90;73.80;;;;;;5072104;28;19908;-70
2022/08/29 05:35:36;;;;;;;;;;;24.00;73.70;;;;;;5071769;28;19986;-69
2022/08/29 05:38:02;;;;;;;;;;;23.90;73.40;;;;;;5071371;28;19913;-71
2022/08/29 05:40:27;;;;;;;;;;;24.00;73.00;;;;;;5071528;28;19908;-72
2022/08/29 05:42:53;;;;;;;;;;;24.00;73.40;;;;;;5074600;28;20364;-71
2022/08/29 05:45:19;;;;;;;;;;;24.00;72.90;;;;;;5075203;28;19916;-70
2022/08/29 05:47:44;;;;;;;;;;;23.90;73.50;;;;;;5075220;28;19955;-68
2022/08/29 05:50:10;;;;;;;;;;;24.00;72.70;;;;;;5074825;28;20276;-71
2022/08/29 05:52:36;;;;;;;;;;;24.20;72.20;;;;;;5067345;28;19931;-70
2022/08/29 05:55:01;;;;;;;;;;;24.30;72.10;;;;;;5074997;28;19912;-64
2022/08/29 05:57:27;;;;;;;;;;;24.30;71.90;;;;;;5075206;28;20430;-65
2022/08/29 05:59:53;;;;;;;;;;;24.30;72.10;;;;;;5074615;28;20372;-64
2022/08/29 06:02:19;;;;;;;;;;;24.20;72.30;;;;;;5075109;28;19909;-63
2022/08/29 06:04:45;;;;;;;;;;;24.30;72.40;;;;;;5074891;28;20054;-67
2022/08/29 06:07:10;;;;;;;;;;;24.40;72.70;;;;;;5074653;28;20435;-67
2022/08/29 06:09:37;;;;;;;;;;;24.40;72.00;;;;;;5074754;28;20398;-62
2022/08/29 06:12:03;;;;;;;;;;;24.40;72.00;;;;;;5074638;28;19912;-62
2022/08/29 06:14:28;;;;;;;;;;;24.50;71.70;;;;;;5074792;28;20015;-69
2022/08/29 06:16:54;;;;;;;;;;;24.60;71.30;;;;;;5074669;28;19995;-66
2022/08/29 06:19:19;;;;;;;;;;;24.70;70.50;;;;;;5074480;28;19928;-71
2022/08/29 06:21:46;;;;;;;;;;;24.90;70.50;;;;;;5076070;28;20927;-71
2022/08/29 06:24:11;;;;;;;;;;;25.30;69.00;;;;;;5089306;28;19904;-73
2022/08/29 06:26:37;;;;;;;;;;;25.30;68.70;;;;;;5074175;28;20378;-72
2022/08/29 06:29:04;;;;;;;;;;;25.40;68.50;;;;;;5074142;28;19913;-72
2022/08/29 06:31:30;;;;;;;;;;;25.40;68.30;;;;;;5088397;28;19908;-67
2022/08/29 06:33:57;;;;;;;;;;;25.50;68.30;;;;;;5074194;28;19922;-70
2022/08/29 06:36:26;;;;;;;;;;;25.40;69.00;;;;;;5074744;28;20382;-74
2022/08/29 06:38:55;;;;;;;;;;;25.40;68.10;;;;;;5074135;28;19912;-67
2022/08/29 06:41:21;;;;;;;;;;;25.60;68.70;;;;;;5074323;28;19909;-68
2022/08/29 06:43:46;;;;;;;;;;;25.90;67.20;;;;;;5074005;28;19919;-68
2022/08/29 06:46:38;;;;;;;;;;;26.00;66.50;;;;;;5073784;28;19939;-65
2022/08/29 06:49:05;;;;;;;;;;;26.20;66.20;;;;;;5072337;28;19915;-66
2022/08/29 06:51:34;;;;;;;;;;;26.30;65.80;;;;;;5063454;28;19908;-68
2022/08/29 06:54:00;;;;;;;;;;;26.20;65.30;;;;;;5073115;28;19909;-67
2022/08/29 06:56:25;;;;;;;;;;;26.20;66.10;;;;;;5073964;28;19971;-67
2022/08/29 06:58:51;;;;;;;;;;;25.90;66.10;;;;;;5073826;28;20268;-66
2022/08/29 07:01:18;;;;;;;;;;;25.90;66.40;;;;;;5073621;28;20426;-63
2022/08/29 07:03:44;;;;;;;;;;;25.90;66.60;;;;;;5073929;28;19947;-65
2022/08/29 07:06:10;;;;;;;;;;;26.00;66.80;;;;;;5073668;28;19968;-65
2022/08/29 07:08:35;;;;;;;;;;;26.20;66.60;;;;;;5073472;28;19951;-66
2022/08/29 07:11:01;;;;;;;;;;;26.20;65.60;;;;;;5073492;28;19958;-65
2022/08/29 07:13:27;;;;;;;;;;;26.30;65.70;;;;;;5074016;28;19912;-66
2022/08/29 07:15:52;;;;;;;;;;;26.30;65.30;;;;;;5080110;28;19922;-64
2022/08/29 07:18:19;;;;;;;;;;;26.30;65.30;;;;;;5079442;28;20387;-64
2022/08/29 07:20:44;;;;;;;;;;;26.40;65.40;;;;;;5073429;28;19915;-67
2022/08/29 07:23:10;;;;;;;;;;;26.50;65.30;;;;;;5059271;28;19913;-66
2022/08/29 07:25:35;;;;;;;;;;;26.60;64.50;;;;;;5073467;28;19913;-63
2022/08/29 07:28:01;;;;;;;;;;;26.70;63.90;;;;;;5073416;28;20368;-66
2022/08/29 07:30:27;;;;;;;;;;;26.70;63.80;;;;;;5084288;28;20003;-66
2022/08/29 07:32:52;;;;;;;;;;;26.70;63.60;;;;;;5076708;28;19913;-67
2022/08/29 07:35:18;;;;;;;;;;;26.70;62.80;;;;;;5073513;28;19969;-62
2022/08/29 07:37:44;;;;;;;;;;;26.70;62.50;;;;;;5073102;28;20020;-67
2022/08/29 07:40:12;;;;;;;;;;;26.80;62.70;;;;;;5073004;28;20372;-64
2022/08/29 07:42:38;;;;;;;;;;;26.90;62.60;;;;;;5072969;28;19913;-63
2022/08/29 07:45:05;;;;;;;;;;;27.00;62.30;;;;;;5072836;28;19916;-64
2022/08/29 07:47:31;;;;;;;;;;;27.10;62.30;;;;;;5072742;28;19959;-63
2022/08/29 07:49:58;;;;;;;;;;;27.30;61.90;;;;;;5072852;28;19913;-62
2022/08/29 07:52:24;;;;;;;;;;;27.40;61.90;;;;;;5062725;28;19915;-60
2022/08/29 07:54:49;;;;;;;;;;;27.50;60.90;;;;;;5072813;28;19908;-68
2022/08/29 07:57:16;;;;;;;;;;;27.40;60.80;;;;;;5072706;28;19916;-69
2022/08/29 07:59:42;;;;;;;;;;;27.30;61.20;;;;;;5072480;28;19912;-63
2022/08/29 08:02:07;;;;;;;;;;;27.30;60.60;;;;;;5072594;28;19914;-62
2022/08/29 08:04:33;;;;;;;;;;;27.30;60.40;;;;;;5071239;28;19944;-64
2022/08/29 08:06:58;;;;;;;;;;;27.40;60.60;;;;;;5072554;28;20315;-64
2022/08/29 08:09:24;;;;;;;;;;;27.60;59.60;;;;;;5072550;28;19913;-62
2022/08/29 08:11:49;;;;;;;;;;;27.60;60.00;;;;;;5072642;28;20338;-63
2022/08/29 08:14:15;;;;;;;;;;;27.70;59.30;;;;;;5072661;28;19912;-64
2022/08/29 08:16:40;;;;;;;;;;;27.60;59.50;;;;;;5072784;28;19960;-65
2022/08/29 08:19:06;;;;;;;;;;;27.90;59.60;;;;;;5072427;28;20029;-63
2022/08/29 08:21:32;;;;;;;;;;;28.20;60.00;;;;;;5059751;28;19912;-65
2022/08/29 08:23:57;;;;;;;;;;;28.30;58.00;;;;;;5072392;28;19909;-64
2022/08/29 08:26:23;;;;;;;;;;;28.40;58.10;;;;;;5072383;28;19916;-62
2022/08/29 08:28:49;;;;;;;;;;;28.60;57.60;;;;;;5072323;28;20061;-62
2022/08/29 08:31:15;;;;;;;;;;;28.80;56.60;;;;;;5086444;28;19913;-60
2022/08/29 08:33:41;;;;;;;;;;;28.80;56.80;;;;;;5072377;28;19908;-63
2022/08/29 08:36:18;;;;;;;;;;;28.70;57.10;;;;;;5072316;28;19912;-62
2022/08/29 08:38:44;;;;;;;;;;;28.90;57.10;;;;;;5072533;28;19954;-63
2022/08/29 08:41:22;;;;;;;;;;;29.00;57.20;;;;;;5071843;28;20310;-63
2022/08/29 08:43:53;;;;;;;;;;;29.10;55.60;;;;;;5072224;28;19909;-62
2022/08/29 08:46:39;;;;;;;;;;;28.90;55.90;;;;;;5072374;28;20249;-64
2022/08/29 08:49:07;;;;;;;;;;;29.00;56.30;;;;;;5071922;28;19954;-63
2022/08/29 08:51:34;;;;;;;;;;;29.00;54.50;;;;;;5058226;28;19912;-65
2022/08/29 08:54:01;;;;;;;;;;;29.10;54.90;;;;;;5072228;28;19908;-64
2022/08/29 08:56:31;;;;;;;;;;;29.10;54.60;;;;;;5072380;28;19908;-63
2022/08/29 08:59:02;;;;;;;;;;;29.20;55.30;;;;;;5077641;28;20357;-64
2022/08/29 09:01:32;;;;;;;;;;;29.00;55.50;;;;;;5075435;28;19908;-66
2022/08/29 09:04:04;;;;;;;;;;;29.10;55.70;;;;;;5075159;28;19967;-63
2022/08/29 09:06:42;;;;;;;;;;;28.70;54.70;;;;;;5077517;28;20417;-64
2022/08/29 09:09:10;;;;;;;;;;;28.40;55.70;;;;;;5078317;28;19913;-67
2022/08/29 09:11:35;;;;;;;;;;;28.60;54.10;;;;;;5076603;28;19996;-63
2022/08/29 09:14:07;;;;;;;;;;;28.80;54.50;;;;;;5072252;28;19947;-63
2022/08/29 09:16:39;;;;;;;;;;;28.90;53.60;;;;;;5073422;28;19947;-62
2022/08/29 09:19:08;;;;;;;;;;;28.90;55.30;;;;;;5075684;28;19927;-64
2022/08/29 09:21:37;;;;;;;;;;;29.00;53.90;;;;;;5059424;28;19916;-63
2022/08/29 09:24:05;;;;;;;;;;;29.10;53.60;;;;;;5074429;28;19912;-63
2022/08/29 09:26:31;;;;;;;;;;;29.20;53.00;;;;;;5075631;28;19924;-64
2022/08/29 09:28:57;;;;;;;;;;;29.10;52.90;;;;;;5075478;28;19912;-64
2022/08/29 09:31:26;;;;;;;;;;;29.20;53.00;;;;;;5089732;28;20050;-63
2022/08/29 09:33:57;;;;;;;;;;;29.20;53.10;;;;;;5074351;28;19909;-61
2022/08/29 09:36:34;;;;;;;;;;;29.20;53.00;;;;;;5073998;28;19951;-62
2022/08/29 09:39:09;;;;;;;;;;;29.10;51.80;;;;;;5075413;28;19916;-64
2022/08/29 09:41:34;;;;;;;;;;;29.10;51.50;;;;;;5074873;28;20350;-61
2022/08/29 09:44:00;;;;;;;;;;;29.10;51.30;;;;;;5075002;28;19912;-61
2022/08/29 09:46:26;;;;;;;;;;;29.10;52.00;;;;;;5074856;28;19928;-61
2022/08/29 09:48:52;;;;;;;;;;;29.00;52.10;;;;;;5074742;28;20401;-61
2022/08/29 09:51:22;;;;;;;;;;;29.00;52.50;;;;;;5074930;28;19913;-61
2022/08/29 09:53:48;;;;;;;;;;;28.90;52.80;;;;;;5063650;28;20292;-60
2022/08/29 09:56:16;;;;;;;;;;;29.00;53.80;;;;;;5073170;28;19912;-61
2022/08/29 09:58:41;;;;;;;;;;;28.90;54.20;;;;;;5074602;28;20296;-62
2022/08/29 10:01:09;;;;;;;;;;;29.00;54.50;;;;;;5074578;28;19915;-61
2022/08/29 10:03:37;;;;;;;;;;;28.90;52.60;;;;;;5074509;28;19944;-61
2022/08/29 10:06:05;;;;;;;;;;;28.90;52.00;;;;;;5074797;28;19922;-60
2022/08/29 10:08:35;;;;;;;;;;;28.90;52.20;;;;;;5075088;28;19966;-63
2022/08/29 10:11:05;;;;;;;;;;;29.00;52.90;;;;;;5072909;28;19920;-63
2022/08/29 10:13:32;;;;;;;;;;;29.00;52.50;;;;;;5074472;28;20003;-61
2022/08/29 10:16:02;;;;;;;;;;;28.90;52.80;;;;;;5074310;28;19940;-61
2022/08/29 10:18:41;;;;;;;;;;;28.90;52.50;;;;;;5074221;28;19930;-63
2022/08/29 10:21:11;;;;;;;;;;;28.90;52.90;;;;;;5074010;28;19909;-61
2022/08/29 10:23:48;;;;;;;;;;;29.00;52.90;;;;;;5059463;28;19916;-65
2022/08/29 10:26:29;;;;;;;;;;;29.00;52.80;;;;;;5092786;28;19916;-60
2022/08/29 10:29:01;;;;;;;;;;;29.00;53.70;;;;;;5093039;28;19930;-65
2022/08/29 10:31:54;;;;;;;;;;;29.10;52.90;;;;;;5094041;28;19919;-66
2022/08/29 10:34:20;;;;;;;;;;;29.10;53.40;;;;;;5094379;28;19912;-66
2022/08/29 10:36:49;;;;;;;;;;;29.10;53.60;;;;;;5074644;28;19916;-66
2022/08/29 10:39:18;;;;;;;;;;;29.20;53.60;;;;;;5074363;28;20431;-63
2022/08/29 10:42:04;;;;;;;;;;;29.20;53.20;;;;;;5074162;28;19913;-65
2022/08/29 10:44:41;;;;;;;;;;;29.20;53.30;;;;;;5074243;28;19915;-66
2022/08/29 10:47:15;;;;;;;;;;;29.20;55.00;;;;;;5074159;28;19920;-69
2022/08/29 10:49:59;;;;;;;;;;;29.20;56.30;;;;;;5073994;28;20307;-62
2022/08/29 10:52:25;;;;;;;;;;;29.20;57.30;;;;;;5069369;28;19920;-72
2022/08/29 10:54:59;;;;;;;;;;;29.30;57.50;;;;;;5074123;28;19912;-59
2022/08/29 10:57:25;;;;;;;;;;;29.30;56.80;;;;;;5074013;28;20276;-63
2022/08/29 10:59:56;;;;;;;;;;;29.40;57.50;;;;;;5073897;28;19908;-61
2022/08/29 11:02:31;;;;;;;;;;;29.30;56.00;;;;;;5073914;28;19909;-64
2022/08/29 11:04:59;;;;;;;;;;;29.30;54.60;;;;;;5082286;28;19919;-62
2022/08/29 11:07:24;;;;;;;;;;;29.30;57.00;;;;;;5089316;28;20348;-62
2022/08/29 11:09:50;;;;;;;;;;;29.30;57.60;;;;;;5092349;28;19919;-60
2022/08/29 11:12:32;;;;;;;;;;;29.30;56.80;;;;;;5082773;28;19908;-62
2022/08/29 11:15:00;;;;;;;;;;;29.30;56.80;;;;;;5088656;28;19908;-63
2022/08/29 11:17:30;;;;;;;;;;;29.40;57.30;;;;;;5072491;28;19999;-64
2022/08/29 11:20:21;;;;;;;;;;;29.40;57.10;;;;;;5089592;28;19923;-61
2022/08/29 11:22:49;;;;;;;;;;;29.50;57.50;;;;;;5026316;28;20325;-60
2022/08/29 11:25:16;;;;;;;;;;;29.50;57.00;;;;;;5085385;28;19940;-63
2022/08/29 11:27:48;;;;;;;;;;;29.50;56.10;;;;;;5083375;28;20276;-64
2022/08/29 11:30:14;;;;;;;;;;;29.40;56.00;;;;;;5083117;28;19912;-63
2022/08/29 11:32:51;;;;;;;;;;;29.40;56.20;;;;;;5073722;28;20256;-62
2022/08/29 11:35:23;;;;;;;;;;;29.30;55.40;;;;;;5080205;28;19908;-64
2022/08/29 11:37:58;;;;;;;;;;;29.30;56.20;;;;;;5087487;28;19908;-71
2022/08/29 11:40:42;;;;;;;;;;;29.20;55.80;;;;;;5074709;28;20360;-60
2022/08/29 11:43:11;;;;;;;;;;;29.20;56.30;;;;;;5072299;28;19916;-64
2022/08/29 11:45:38;;;;;;;;;;;29.30;55.80;;;;;;5089999;28;19927;-64
2022/08/29 11:48:18;;;;;;;;;;;29.20;55.80;;;;;;5091344;28;19962;-61
2022/08/29 11:50:44;;;;;;;;;;;29.10;56.60;;;;;;5073509;28;19915;-61
2022/08/29 11:53:19;;;;;;;;;;;28.90;57.50;;;;;;5070597;28;19908;-64
2022/08/29 11:56:04;;;;;;;;;;;29.00;58.10;;;;;;5074454;28;19908;-63
2022/08/29 11:58:34;;;;;;;;;;;28.90;58.20;;;;;;5083434;28;19916;-67
2022/08/29 12:01:00;;;;;;;;;;;28.90;58.00;;;;;;5091130;28;20086;-66
2022/08/29 12:03:31;;;;;;;;;;;28.80;59.00;;;;;;5081256;28;20455;-69
2022/08/29 12:06:23;;;;;;;;;;;28.90;59.80;;;;;;5076100;28;19916;-62
2022/08/29 12:09:04;;;;;;;;;;;28.80;59.90;;;;;;5054509;28;20284;-61
2022/08/29 12:11:48;;;;;;;;;;;28.70;61.50;;;;;;5071602;28;19913;-67
2022/08/29 12:14:34;;;;;;;;;;;28.70;60.30;;;;;;5071743;28;19970;-65
2022/08/29 12:17:02;;;;;;;;;;;28.80;60.30;;;;;;5071816;28;19919;-61
2022/08/29 12:19:53;;;;;;;;;;;28.80;59.00;;;;;;5082725;28;20010;-61
2022/08/29 12:22:37;;;;;;;;;;;28.80;58.40;;;;;;5056911;28;19961;-62
2022/08/29 12:25:23;;;;;;;;;;;28.70;58.90;;;;;;5085990;28;19909;-67
2022/08/29 12:28:01;;;;;;;;;;;28.70;58.70;;;;;;5076863;28;19920;-73
2022/08/29 12:30:33;;;;;;;;;;;28.70;58.90;;;;;;5079519;28;20289;-77
2022/08/29 12:33:37;;;;;;;;;;;28.70;59.40;;;;;;5071618;28;19995;-79
2022/08/29 12:36:06;;;;;;;;;;;28.70;59.50;;;;;;5031685;28;19937;-61
2022/08/29 12:38:31;;;;;;;;;;;28.80;59.70;;;;;;5031645;28;19975;-73
2022/08/29 12:41:17;;;;;;;;;;;28.80;59.90;;;;;;5031721;28;19917;-73
2022/08/29 12:43:44;;;;;;;;;;;28.80;59.40;;;;;;5031971;28;19909;-75
2022/08/29 12:46:29;;;;;;;;;;;28.80;59.00;;;;;;5031619;28;20281;-73
2022/08/29 12:49:01;;;;;;;;;;;28.80;58.20;;;;;;5040249;28;19948;-72
2022/08/29 12:51:33;;;;;;;;;;;28.80;58.10;;;;;;5037125;28;20011;-70
2022/08/29 12:53:59;;;;;;;;;;;28.80;58.80;;;;;;5049398;28;20005;-70
2022/08/29 12:56:25;;;;;;;;;;;28.80;58.80;;;;;;5049858;28;20369;-70
2022/08/29 12:58:51;;;;;;;;;;;28.80;60.00;;;;;;5049736;28;19913;-76
2022/08/29 13:01:38;;;;;;;;;;;28.60;63.10;;;;;;5049785;28;20059;-72
2022/08/29 13:04:04;;;;;;;;;;;28.60;62.70;;;;;;5049680;28;19913;-71
2022/08/29 13:06:30;;;;;;;;;;;28.50;63.60;;;;;;5065080;28;19929;-71
2022/08/29 13:08:56;;;;;;;;;;;28.70;58.70;;;;;;5071451;28;20407;-62
2022/08/29 13:11:24;;;;;;;;;;;28.60;59.30;;;;;;5071359;28;19913;-62
2022/08/29 13:13:49;;;;;;;;;;;28.50;58.80;;;;;;5071399;28;19912;-62
2022/08/29 13:16:23;;;;;;;;;;;28.30;62.10;;;;;;5071276;28;19919;-61
2022/08/29 13:18:48;;;;;;;;;;;28.40;63.00;;;;;;5071358;28;19920;-65
2022/08/29 13:21:24;;;;;;;;;;;28.50;62.70;;;;;;5071085;28;19918;-62
2022/08/29 13:23:57;;;;;;;;;;;28.50;62.30;;;;;;5057357;28;19916;-63
2022/08/29 13:26:26;;;;;;;;;;;28.40;63.00;;;;;;5070347;28;19939;-62
2022/08/29 13:28:59;;;;;;;;;;;28.50;62.00;;;;;;5069855;28;19908;-61
2022/08/29 13:31:35;;;;;;;;;;;28.60;61.90;;;;;;5088858;28;19931;-62
2022/08/29 13:34:08;;;;;;;;;;;28.50;61.40;;;;;;5091350;28;20415;-64
2022/08/29 13:36:59;;;;;;;;;;;28.60;61.80;;;;;;5091116;28;19914;-63
2022/08/29 13:39:25;;;;;;;;;;;28.60;61.30;;;;;;5091965;28;19908;-64
2022/08/29 13:42:00;;;;;;;;;;;28.50;62.50;;;;;;5094116;28;20321;-64
2022/08/29 13:44:30;;;;;;;;;;;28.50;61.90;;;;;;5085656;28;19916;-63
2022/08/29 13:47:00;;;;;;;;;;;28.50;61.90;;;;;;5074674;28;20074;-61
2022/08/29 13:49:29;;;;;;;;;;;28.70;62.20;;;;;;5087259;28;19931;-63
2022/08/29 13:51:55;;;;;;;;;;;28.70;62.20;;;;;;5067658;28;20277;-62
2022/08/29 13:54:21;;;;;;;;;;;28.80;62.20;;;;;;5070959;28;19912;-62
2022/08/29 13:56:52;;;;;;;;;;;28.90;62.10;;;;;;5069783;28;19931;-64
2022/08/29 13:59:23;;;;;;;;;;;29.10;61.20;;;;;;5069385;28;20360;-60
2022/08/29 14:01:49;;;;;;;;;;;29.10;60.00;;;;;;5069422;28;19909;-61
2022/08/29 14:04:14;;;;;;;;;;;29.20;61.00;;;;;;5072855;28;20003;-61
2022/08/29 14:06:40;;;;;;;;;;;29.10;60.50;;;;;;5073107;28;20027;-68
2022/08/29 14:09:05;;;;;;;;;;;28.30;59.80;;;;;;5073013;28;20556;-61
2022/08/29 14:11:31;;;;;;;;;;;27.70;62.20;;;;;;5072941;28;19908;-66
2022/08/29 14:13:57;;;;;;;;;;;27.50;63.00;;;;;;5071987;28;20307;-68
2022/08/29 14:16:23;;;;;;;;;;;27.60;62.50;;;;;;5072008;28;19913;-64
2022/08/29 14:18:52;;;;;;;;;;;27.50;62.70;;;;;;5073287;28;20031;-67
2022/08/29 14:21:19;;;;;;;;;;;27.40;61.30;;;;;;5091056;28;19915;-65
2022/08/29 14:23:44;;;;;;;;;;;27.40;62.90;;;;;;5082604;28;19908;-71
2022/08/29 14:26:10;;;;;;;;;;;27.40;61.30;;;;;;5093434;28;19973;-63